• Join FlightAware (Why Join?)
  • Login
  • US Flag 
02:16PM EDT


 

Airport Tracker/Info


-or-


 

Live Flight TrackerFlight Track Log ✈ LJY824 ✈ 27-Apr-2012 ✈ KTEB - KLBE

Flight Track Log - Related Links

Times and Time Zones

All times are in EDT time to prevent confusion due to time zone crossing. See the LJY824 flight status page for this flight to view local times or setup timezone preferences in your user account.

Time Position Orientation Groundspeed Altitude Reporting Facility
EDT Latitude Longitude Course Direction KTS MPH feet Rate Location/Type
03:56PM 40.9000 -74.0333 288° West 208 239 2,000  Level New York TRACON
03:57PM 40.9167 -74.1000 255° West 228 262 4,900 1,980 Climbing New York TRACON
03:58PM 40.9000 -74.1833 270° West 239 275 6,000 1,980 Climbing New York TRACON
03:59PM 40.9000 -74.2667 258° West 229 264 8,900 3,000 Climbing New York TRACON
04:00PM 40.8833 -74.3667 270° West 239 275 12,000 2,940 Climbing New York TRACON
04:02PM 40.8833 -74.4500 258° West 238 274 15,100 1,920 Climbing New York TRACON
04:03PM 40.8631 -74.5711 262° West 360 414 17,000 780 Climbing New York Center
04:04PM 40.8508 -74.6858 263° West 304 350 17,000  Level New York Center
04:05PM 40.8414 -74.7811 261° West 292 336 17,000 720 Level New York Center
04:06PM 40.8269 -74.8956 264° West 297 342 18,500 1,500 Climbing New York Center
04:07PM 40.8197 -74.9883 259° West 297 342 20,100 1,740 Climbing New York Center
04:08PM 40.8056 -75.0861 262° West 284 327 22,100 1,980 Climbing New York Center
04:09PM 40.7958 -75.1814 256° West 272 313 24,100 1,980 Climbing New York Center
04:10PM 40.7803 -75.2653 261° West 256 295 26,000 900 Climbing New York Center
04:11PM 40.7681 -75.3633 247° West 256 295 26,000  Level New York Center
04:12PM 40.7372 -75.4597 245° Southwest 270 311 26,000  Level New York Center
04:13PM 40.6997 -75.5639 243° Southwest 295 339 26,000  Level New York Center
04:14PM 40.6603 -75.6653 244° Southwest 306 352 26,000  Level New York Center
04:15PM 40.6225 -75.7664 243° Southwest 313 360 26,000  Level New York Center
04:16PM 40.5850 -75.8647 243° Southwest 313 360 26,000  Level New York Center
04:17PM 40.5453 -75.9656 243° Southwest 313 360 26,000  Level New York Center
04:18PM 40.5053 -76.0692 244° Southwest 313 360 26,000  Level New York Center
04:19PM 40.4672 -76.1700 242° Southwest 313 360 26,000  Level New York Center
04:20PM 40.4272 -76.2678 245° Southwest 313 360 26,000  Level New York Center
04:21PM 40.3914 -76.3683 242° Southwest 313 360 26,000  Level New York Center
04:22PM 40.3511 -76.4686 252° West 313 360 26,000  Level New York Center
04:23PM 40.3253 -76.5700 252° West 308 354 26,000  Level New York Center
04:24PM 40.2994 -76.6739 250° West 308 354 26,000  Level New York Center
04:25PM 40.2714 -76.7722 253° West 298 343 26,000  Level New York Center
04:26PM 40.2475 -76.8736 251° West 298 343 26,000  Level New York Center
04:27PM 40.2214 -76.9747 253° West 298 343 26,000  Level New York Center
04:28PM 40.1972 -77.0758 253° West 298 343 26,000 -60 Level New York Center
04:29PM 40.1731 -77.1769 250° West 298 343 25,900 -720 Descending New York Center
04:30PM 40.1444 -77.2803 252° West 298 343 24,600 -1,260 Descending New York Center
04:31PM 40.1200 -77.3811 252° West 298 343 23,400 -1,320 Descending New York Center
04:34PM 40.0544 -77.6508 249° West 301 346 20,100 -1,020 Descending Cleveland Center
04:35PM 40.0275 -77.7444 253° West 296 341 20,000 -60 Descending Cleveland Center
04:36PM 40.0031 -77.8456 253° West 290 334 20,000  Level Cleveland Center
04:37PM 39.9803 -77.9414 276° West 290 334 20,000 -240 Level Cleveland Center
04:38PM 39.9886 -78.0386 285° West 275 316 19,600 -900 Descending Cleveland Center
04:39PM 40.0075 -78.1328 286° West 270 311 18,200 -1,440 Descending Cleveland Center
04:40PM 40.0281 -78.2242 284° West 270 311 16,800 -1,440 Descending Cleveland Center
04:41PM 40.0444 -78.3106 288° West 259 298 15,400 -1,500 Descending Cleveland Center
04:42PM 40.0669 -78.3992 283° West 259 298 13,900 -1,500 Descending Cleveland Center
04:43PM 40.0903 -78.5289 291° West 265 305 11,900 -1,500 Descending Cleveland Center
04:44PM 40.1058 -78.5825 283° West 259 298 11,000 -1,380 Descending Cleveland Center
04:45PM 40.1219 -78.6717 287° West 264 304 9,600 -1,500 Descending Cleveland Center
04:46PM 40.1422 -78.7581 284° West 251 289 8,100 -1,500 Descending Cleveland Center
04:47PM 40.1581 -78.8417 288° West 251 289 6,600 -1,500 Descending Cleveland Center
04:48PM 40.1781 -78.9228 283° West 246 283 5,200 -720 Descending Cleveland Center
04:49PM 40.2006 -79.0472 283° West 246 283 4,900 -180 Descending Cleveland Center
04:50PM 40.2142 -79.1258 290° West 241 277 4,900 -120 Level Cleveland Center
04:51PM 40.2361 -79.2042 300° West 230 265 4,700 -660 Descending Cleveland Center
04:52PM 40.2661 -79.2717 302° West 218 251 3,600 -1,020 Descending Cleveland Center
04:53PM 40.2939 -79.3308 302° West 189 217 2,600 -900 Descending Cleveland Center